createdAt,value
2019-05-25T08:54:42.130Z,40.20
2019-05-25T08:57:14.904Z,39.70
2019-05-25T08:59:41.093Z,40.50
2019-05-25T09:02:09.599Z,39.80
2019-05-25T09:04:38.062Z,40.30
2019-05-25T09:07:06.506Z,40.70
2019-05-25T09:09:34.930Z,40.70
2019-05-25T09:12:03.426Z,39.70
2019-05-25T09:14:31.915Z,40.70
2019-05-25T09:17:00.344Z,40.60
2019-05-25T09:19:28.836Z,41.20
2019-05-25T09:22:02.419Z,39.40
2019-05-25T09:24:27.413Z,37.20
2019-05-25T09:26:55.851Z,36.00
2019-05-25T09:29:24.272Z,35.70
2019-05-25T09:31:52.698Z,37.30
2019-05-25T09:34:21.131Z,38.60
2019-05-25T09:36:49.591Z,38.60
2019-05-25T09:39:18.055Z,38.10
2019-05-25T09:41:46.518Z,38.00
2019-05-25T09:44:14.934Z,38.20
2019-05-25T09:46:43.363Z,38.60
2019-05-25T09:49:11.787Z,40.10
2019-05-25T09:51:40.293Z,39.50
2019-05-25T09:54:08.698Z,38.50
2019-05-25T09:56:37.122Z,38.40
2019-05-25T09:59:19.190Z,38.30
2019-05-25T10:01:35.837Z,38.10
2019-05-25T10:04:04.255Z,38.80
2019-05-25T10:06:32.688Z,39.70
2019-05-25T10:09:01.111Z,40.10
2019-05-25T10:11:29.573Z,41.10
2019-05-25T10:13:57.987Z,40.00
2019-05-25T10:16:26.416Z,39.40
2019-05-25T10:18:54.831Z,37.60
2019-05-25T10:21:23.255Z,35.40
2019-05-25T10:23:51.673Z,33.30
2019-05-25T10:26:22.893Z,31.60
2019-05-25T10:28:50.259Z,30.10
2019-05-25T10:31:18.691Z,29.80
2019-05-25T10:33:47.117Z,30.00
2019-05-25T10:36:15.547Z,29.80
2019-05-25T10:38:44.052Z,29.10
2019-05-25T10:41:12.546Z,29.10
2019-05-25T10:43:40.963Z,28.00
